Time,TemperatureF,DewpointF,PressureIn,WindDirection,WindDirectionDegrees,WindSpeedMPH,WindSpeedGustMPH,Humidity,HourlyPrecipIn,Conditions,Clouds,dailyrainin,SolarRadiationWatts/m^2,SoftwareType,DateUTC
2013-01-26 00:01:00,36.0,32.0,-100.00,SE,125,7.0,12.0,86,0.00,,,-99.99,0.000000,,2013-01-26 07:01:00,
2013-01-26 00:11:00,36.0,32.0,-100.00,SE,125,7.0,12.0,86,0.00,,,-99.99,0.000000,,2013-01-26 07:11:00,
2013-01-26 00:33:00,37.0,32.0,-100.00,ESE,104,5.0,10.0,83,0.00,,,0.06,0.000000,,2013-01-26 07:33:00,
2013-01-26 00:42:00,37.0,32.0,-100.00,ESE,104,5.0,10.0,83,0.00,,,0.06,0.000000,,2013-01-26 07:42:00,
2013-01-26 00:52:00,37.0,32.0,-100.00,ESE,104,5.0,10.0,83,0.00,,,0.06,0.000000,,2013-01-26 07:52:00,
2013-01-26 01:02:00,37.0,32.0,-100.00,ESE,104,5.0,10.0,83,0.00,,,0.06,0.000000,,2013-01-26 08:02:00,
2013-01-26 01:11:00,37.0,32.0,-100.00,ESE,104,5.0,10.0,83,0.00,,,0.06,0.000000,,2013-01-26 08:11:00,
2013-01-26 01:42:00,36.0,31.0,-100.00,SE,128,6.0,9.0,82,0.00,,,0.06,0.000000,,2013-01-26 08:42:00,
2013-01-26 01:54:00,36.0,31.0,-100.00,SE,128,6.0,9.0,82,0.00,,,0.06,0.000000,,2013-01-26 08:54:00,
2013-01-26 02:02:00,36.0,31.0,-100.00,SE,128,6.0,9.0,82,0.00,,,0.06,0.000000,,2013-01-26 09:02:00,
2013-01-26 02:11:00,36.0,31.0,-100.00,SE,128,6.0,9.0,82,0.00,,,0.06,0.000000,,2013-01-26 09:11:00,
2013-01-26 02:32:00,36.0,29.0,-100.00,ESE,117,7.0,12.0,77,0.00,,,0.06,0.000000,,2013-01-26 09:32:00,
2013-01-26 02:42:00,36.0,29.0,-100.00,ESE,117,7.0,12.0,77,0.00,,,0.06,0.000000,,2013-01-26 09:42:00,
2013-01-26 02:52:00,36.0,29.0,-100.00,ESE,117,7.0,12.0,77,0.00,,,0.06,0.000000,,2013-01-26 09:52:00,
2013-01-26 03:01:00,36.0,29.0,-100.00,ESE,117,7.0,12.0,77,0.00,,,0.06,0.000000,,2013-01-26 10:01:00,
2013-01-26 03:11:00,36.0,29.0,-100.00,ESE,117,7.0,12.0,77,0.00,,,0.06,0.000000,,2013-01-26 10:11:00,
2013-01-26 03:42:00,37.0,29.0,-100.00,ESE,118,7.0,11.0,73,0.00,,,0.06,0.000000,,2013-01-26 10:42:00,
2013-01-26 03:52:00,37.0,29.0,-100.00,ESE,118,7.0,11.0,73,0.00,,,0.06,0.000000,,2013-01-26 10:52:00,
2013-01-26 04:01:00,37.0,29.0,-100.00,ESE,118,7.0,11.0,73,0.00,,,0.06,0.000000,,2013-01-26 11:01:00,
2013-01-26 04:12:00,37.0,29.0,-100.00,ESE,118,7.0,11.0,73,0.00,,,0.06,0.000000,,2013-01-26 11:12:00,
2013-01-26 04:32:00,36.0,28.0,-100.00,ESE,122,8.0,12.0,73,0.00,,,0.06,0.000000,,2013-01-26 11:32:00,
2013-01-26 04:42:00,36.0,28.0,-100.00,ESE,122,8.0,12.0,73,0.00,,,0.06,0.000000,,2013-01-26 11:42:00,
2013-01-26 04:52:00,36.0,28.0,-100.00,ESE,122,8.0,12.0,73,0.00,,,0.06,0.000000,,2013-01-26 11:52:00,
2013-01-26 05:01:00,36.0,28.0,-100.00,ESE,122,8.0,12.0,73,0.00,,,0.06,0.000000,,2013-01-26 12:01:00,
2013-01-26 05:12:00,36.0,28.0,-100.00,ESE,122,8.0,12.0,73,0.00,,,0.06,0.000000,,2013-01-26 12:12:00,
2013-01-26 05:33:00,37.0,29.0,-100.00,SE,146,8.0,11.0,72,0.00,,,0.06,0.000000,,2013-01-26 12:33:00,
2013-01-26 05:42:00,37.0,29.0,-100.00,SE,146,8.0,11.0,72,0.00,,,0.06,0.000000,,2013-01-26 12:42:00,
2013-01-26 05:53:00,37.0,29.0,-100.00,SE,146,8.0,11.0,72,0.00,,,0.06,0.000000,,2013-01-26 12:53:00,
2013-01-26 06:03:00,37.0,29.0,-100.00,SE,146,8.0,11.0,72,0.00,,,0.06,0.000000,,2013-01-26 13:03:00,
2013-01-26 06:12:00,37.0,29.0,-100.00,SE,146,8.0,11.0,72,0.00,,,0.06,0.000000,,2013-01-26 13:12:00,
2013-01-26 06:42:00,36.0,28.0,-100.00,SE,129,6.0,14.0,71,0.00,,,0.06,0.000000,,2013-01-26 13:42:00,
2013-01-26 06:53:00,36.0,28.0,-100.00,SE,129,6.0,14.0,71,0.00,,,0.06,0.000000,,2013-01-26 13:53:00,
2013-01-26 07:02:00,36.0,28.0,-100.00,SE,129,6.0,14.0,71,0.00,,,0.06,0.000000,,2013-01-26 14:02:00,
2013-01-26 07:11:00,36.0,28.0,-100.00,SE,129,6.0,14.0,71,0.00,,,0.06,0.000000,,2013-01-26 14:11:00,
2013-01-26 07:32:00,35.0,29.0,-100.00,SE,129,9.0,11.0,77,0.00,,,0.06,0.000000,,2013-01-26 14:32:00,
2013-01-26 07:43:00,35.0,29.0,-100.00,SE,129,9.0,11.0,77,0.00,,,0.06,0.000000,,2013-01-26 14:43:00,
2013-01-26 07:53:00,35.0,29.0,-100.00,SE,129,9.0,11.0,77,0.00,,,0.06,0.000000,,2013-01-26 14:53:00,
2013-01-26 08:02:00,35.0,29.0,-100.00,SE,129,9.0,11.0,77,0.00,,,0.06,0.000000,,2013-01-26 15:02:00,
2013-01-26 08:12:00,35.0,29.0,-100.00,SE,129,9.0,11.0,77,0.00,,,0.06,0.000000,,2013-01-26 15:12:00,
2013-01-26 08:33:00,33.0,25.0,-100.00,SE,128,5.0,13.0,72,0.00,,,0.06,2.000000,,2013-01-26 15:33:00,
2013-01-26 08:43:00,33.0,25.0,-100.00,SE,128,5.0,13.0,72,0.00,,,0.06,2.000000,,2013-01-26 15:43:00,
2013-01-26 08:53:00,33.0,25.0,-100.00,SE,128,5.0,13.0,72,0.00,,,0.06,2.000000,,2013-01-26 15:53:00,
2013-01-26 09:02:00,33.0,25.0,-100.00,SE,128,5.0,13.0,72,0.00,,,0.06,2.000000,,2013-01-26 16:02:00,
2013-01-26 09:12:00,33.0,25.0,-100.00,SE,128,5.0,13.0,72,0.00,,,0.06,2.000000,,2013-01-26 16:12:00,
2013-01-26 09:33:00,34.0,27.0,-100.00,SSE,147,3.0,7.0,75,0.00,,,0.06,32.000000,,2013-01-26 16:33:00,
2013-01-26 09:43:00,34.0,27.0,-100.00,SSE,147,3.0,7.0,75,0.00,,,0.06,32.000000,,2013-01-26 16:43:00,
2013-01-26 09:53:00,34.0,27.0,-100.00,SSE,147,3.0,7.0,75,0.00,,,0.06,32.000000,,2013-01-26 16:53:00,
2013-01-26 10:03:00,34.0,27.0,-100.00,SSE,147,3.0,7.0,75,0.00,,,0.06,32.000000,,2013-01-26 17:03:00,
2013-01-26 10:12:00,34.0,27.0,-100.00,SSE,147,3.0,7.0,75,0.00,,,0.06,32.000000,,2013-01-26 17:12:00,
2013-01-26 10:33:00,41.0,27.0,-100.00,SSE,151,6.0,11.0,57,0.00,,,0.06,168.000000,,2013-01-26 17:33:00,
2013-01-26 10:42:00,41.0,27.0,-100.00,SSE,151,6.0,11.0,57,0.00,,,0.06,168.000000,,2013-01-26 17:42:00,
2013-01-26 10:53:00,41.0,27.0,-100.00,SSE,151,6.0,11.0,57,0.00,,,0.06,168.000000,,2013-01-26 17:53:00,
2013-01-26 11:02:00,41.0,27.0,-100.00,SSE,151,6.0,11.0,57,0.00,,,0.06,168.000000,,2013-01-26 18:02:00,
2013-01-26 11:11:00,41.0,27.0,-100.00,SSE,151,6.0,11.0,57,0.00,,,0.06,168.000000,,2013-01-26 18:11:00,
2013-01-26 11:42:00,44.0,29.0,-100.00,SSE,166,8.0,13.0,56,0.00,,,0.06,421.000000,,2013-01-26 18:42:00,
2013-01-26 11:52:00,44.0,29.0,-100.00,SSE,166,8.0,13.0,56,0.00,,,0.06,421.000000,,2013-01-26 18:52:00,
2013-01-26 12:03:00,44.0,29.0,-100.00,SSE,166,8.0,13.0,56,0.00,,,0.06,421.000000,,2013-01-26 19:03:00,
2013-01-26 12:11:00,44.0,29.0,-100.00,SSE,166,8.0,13.0,56,0.00,,,0.06,421.000000,,2013-01-26 19:11:00,
2013-01-26 12:43:00,45.0,28.0,-100.00,South,170,8.0,15.0,52,0.00,,,0.06,460.000000,,2013-01-26 19:43:00,
2013-01-26 12:52:00,45.0,28.0,-100.00,South,170,8.0,15.0,52,0.00,,,0.06,460.000000,,2013-01-26 19:52:00,
2013-01-26 13:02:00,45.0,28.0,-100.00,South,170,8.0,15.0,52,0.00,,,0.06,460.000000,,2013-01-26 20:02:00,
2013-01-26 13:11:00,45.0,28.0,-100.00,South,170,8.0,15.0,52,0.00,,,0.06,460.000000,,2013-01-26 20:11:00,
2013-01-26 13:42:00,45.0,27.0,-100.00,South,181,6.0,17.0,49,0.00,,,0.06,555.000000,,2013-01-26 20:42:00,
2013-01-26 13:52:00,45.0,27.0,-100.00,South,181,6.0,17.0,49,0.00,,,0.06,555.000000,,2013-01-26 20:52:00,
2013-01-26 14:02:00,45.0,27.0,-100.00,South,181,6.0,17.0,49,0.00,,,0.06,555.000000,,2013-01-26 21:02:00,
2013-01-26 14:32:00,39.0,24.0,-100.00,West,275,10.0,16.0,54,-99.99,,,0.06,350.000000,,2013-01-26 21:32:00,
2013-01-26 14:43:00,39.0,24.0,-100.00,West,275,10.0,16.0,54,-99.99,,,0.06,350.000000,,2013-01-26 21:43:00,
2013-01-26 14:52:00,39.0,24.0,-100.00,West,275,10.0,16.0,54,-99.99,,,0.06,350.000000,,2013-01-26 21:52:00,
2013-01-26 15:01:00,39.0,24.0,-100.00,West,275,10.0,16.0,54,-99.99,,,0.06,350.000000,,2013-01-26 22:01:00,
2013-01-26 15:11:00,39.0,24.0,-100.00,West,275,10.0,16.0,54,-99.99,,,0.06,350.000000,,2013-01-26 22:11:00,
2013-01-26 15:42:00,36.0,30.0,-100.00,WNW,293,4.0,14.0,79,0.00,,,0.06,151.000000,,2013-01-26 22:42:00,
2013-01-26 15:52:00,36.0,30.0,-100.00,WNW,293,4.0,14.0,79,0.00,,,0.06,151.000000,,2013-01-26 22:52:00,
2013-01-26 16:01:00,36.0,30.0,-100.00,WNW,293,4.0,14.0,79,0.00,,,0.06,151.000000,,2013-01-26 23:01:00,
2013-01-26 16:11:00,36.0,30.0,-100.00,WNW,293,4.0,14.0,79,0.00,,,0.06,151.000000,,2013-01-26 23:11:00,
2013-01-26 16:42:00,32.0,30.0,-100.00,NE,35,5.0,11.0,92,0.00,,,0.06,28.000000,,2013-01-26 23:42:00,
2013-01-26 16:52:00,32.0,30.0,-100.00,NE,35,5.0,11.0,92,0.00,,,0.06,28.000000,,2013-01-26 23:52:00,
2013-01-26 17:02:00,32.0,30.0,-100.00,NE,35,5.0,11.0,92,0.00,,,0.06,28.000000,,2013-01-27 00:02:00,
2013-01-26 17:11:00,32.0,30.0,-100.00,NE,35,5.0,11.0,92,0.00,,,0.06,28.000000,,2013-01-27 00:11:00,
2013-01-26 17:32:00,31.0,30.0,-100.00,North,352,2.0,9.0,95,0.00,,,0.06,11.000000,,2013-01-27 00:32:00,
2013-01-26 17:42:00,31.0,30.0,-100.00,North,352,2.0,9.0,95,0.00,,,0.06,11.000000,,2013-01-27 00:42:00,
2013-01-26 17:52:00,31.0,30.0,-100.00,North,352,2.0,9.0,95,0.00,,,0.06,11.000000,,2013-01-27 00:52:00,
2013-01-26 18:01:00,31.0,30.0,-100.00,North,352,2.0,9.0,95,0.00,,,0.06,11.000000,,2013-01-27 01:01:00,
2013-01-26 18:11:00,31.0,30.0,-100.00,North,352,2.0,9.0,95,0.00,,,0.06,11.000000,,2013-01-27 01:11:00,
2013-01-26 18:32:00,29.0,28.0,-100.00,SE,132,1.0,3.0,96,0.00,,,0.06,0.000000,,2013-01-27 01:32:00,
2013-01-26 18:42:00,29.0,28.0,-100.00,SE,132,1.0,3.0,96,0.00,,,0.06,0.000000,,2013-01-27 01:42:00,
2013-01-26 18:52:00,29.0,28.0,-100.00,SE,132,1.0,3.0,96,0.00,,,0.06,0.000000,,2013-01-27 01:52:00,
2013-01-26 19:01:00,29.0,28.0,-100.00,SE,132,1.0,3.0,96,0.00,,,0.06,0.000000,,2013-01-27 02:01:00,
2013-01-26 19:11:00,29.0,28.0,-100.00,SE,132,1.0,3.0,96,0.00,,,0.06,0.000000,,2013-01-27 02:11:00,
2013-01-26 19:42:00,29.0,28.0,-100.00,East,92,3.0,7.0,96,0.00,,,-99.99,0.000000,,2013-01-27 02:42:00,
2013-01-26 19:52:00,29.0,28.0,-100.00,East,92,3.0,7.0,96,0.00,,,-99.99,0.000000,,2013-01-27 02:52:00,
2013-01-26 20:01:00,29.0,28.0,-100.00,East,92,3.0,7.0,96,0.00,,,-99.99,0.000000,,2013-01-27 03:01:00,
2013-01-26 20:11:00,29.0,28.0,-100.00,East,92,3.0,7.0,96,0.00,,,-99.99,0.000000,,2013-01-27 03:11:00,
2013-01-26 20:32:00,29.0,27.0,-100.00,ESE,107,4.0,5.0,94,0.00,,,0.04,0.000000,,2013-01-27 03:32:00,
2013-01-26 20:42:00,29.0,27.0,-100.00,ESE,107,4.0,5.0,94,0.00,,,0.04,0.000000,,2013-01-27 03:42:00,
2013-01-26 20:52:00,29.0,27.0,-100.00,ESE,107,4.0,5.0,94,0.00,,,0.04,0.000000,,2013-01-27 03:52:00,
2013-01-26 21:01:00,29.0,27.0,-100.00,ESE,107,4.0,5.0,94,0.00,,,0.04,0.000000,,2013-01-27 04:01:00,
2013-01-26 21:11:00,29.0,27.0,-100.00,ESE,107,4.0,5.0,94,0.00,,,0.04,0.000000,,2013-01-27 04:11:00,
2013-01-26 21:32:00,28.0,25.0,-100.00,ESE,111,5.0,7.0,87,0.00,,,0.00,0.000000,,2013-01-27 04:32:00,
2013-01-26 21:42:00,28.0,25.0,-100.00,ESE,111,5.0,7.0,87,0.00,,,0.00,0.000000,,2013-01-27 04:42:00,
2013-01-26 21:52:00,28.0,25.0,-100.00,ESE,111,5.0,7.0,87,0.00,,,0.00,0.000000,,2013-01-27 04:52:00,
2013-01-26 22:03:00,28.0,25.0,-100.00,ESE,111,5.0,7.0,87,0.00,,,0.00,0.000000,,2013-01-27 05:03:00,
2013-01-26 22:11:00,28.0,25.0,-100.00,ESE,111,5.0,7.0,87,0.00,,,0.00,0.000000,,2013-01-27 05:11:00,
2013-01-26 22:32:00,28.0,25.0,-100.00,ESE,112,5.0,6.0,89,0.00,,,0.00,0.000000,,2013-01-27 05:32:00,
2013-01-26 22:42:00,28.0,25.0,-100.00,ESE,112,5.0,6.0,89,0.00,,,0.00,0.000000,,2013-01-27 05:42:00,
2013-01-26 22:52:00,28.0,25.0,-100.00,ESE,112,5.0,6.0,89,0.00,,,0.00,0.000000,,2013-01-27 05:52:00,
2013-01-26 23:01:00,28.0,25.0,-100.00,ESE,112,5.0,6.0,89,0.00,,,0.00,0.000000,,2013-01-27 06:01:00,
2013-01-26 23:11:00,28.0,25.0,-100.00,ESE,112,5.0,6.0,89,0.00,,,0.00,0.000000,,2013-01-27 06:11:00,
2013-01-26 23:32:00,27.0,24.0,-100.00,ESE,116,3.0,6.0,88,0.00,,,0.00,0.000000,,2013-01-27 06:32:00,
2013-01-26 23:42:00,27.0,24.0,-100.00,ESE,116,3.0,6.0,88,0.00,,,0.00,0.000000,,2013-01-27 06:42:00,
2013-01-26 23:52:00,27.0,24.0,-100.00,ESE,116,3.0,6.0,88,0.00,,,0.00,0.000000,,2013-01-27 06:52:00,